createdAt,value
2018-12-11T00:00:23.408Z,88.10
2018-12-11T00:02:52.369Z,88.40
2018-12-11T00:05:20.511Z,91.10
2018-12-11T00:07:48.322Z,85.10
2018-12-11T00:10:15.832Z,85.40
2018-12-11T00:12:43.430Z,80.00
2018-12-11T00:15:11.686Z,82.50
2018-12-11T00:17:39.494Z,83.10
2018-12-11T00:20:08.022Z,81.30
2018-12-11T00:22:35.630Z,81.60
2018-12-11T00:25:04.345Z,74.40
2018-12-11T00:27:32.402Z,79.40
2018-12-11T00:29:59.893Z,76.60
2018-12-11T00:32:27.381Z,78.00
2018-12-11T00:34:57.075Z,77.70
2018-12-11T00:37:25.399Z,80.60
2018-12-11T00:39:53.541Z,78.30
2018-12-11T00:42:22.225Z,77.70
2018-12-11T00:44:50.463Z,74.40
2018-12-11T00:47:18.091Z,72.60
2018-12-11T00:49:46.135Z,72.00
2018-12-11T00:52:14.851Z,71.70
2018-12-11T00:54:42.685Z,67.90
2018-12-11T00:57:11.109Z,69.00
2018-12-11T00:59:39.145Z,66.60
2018-12-11T01:02:07.139Z,75.30
2018-12-11T01:04:36.157Z,79.50
2018-12-11T01:07:04.665Z,82.20
2018-12-11T01:09:32.165Z,83.60
2018-12-11T01:11:59.937Z,84.00
2018-12-11T01:14:28.296Z,83.00
2018-12-11T01:16:56.261Z,82.60
2018-12-11T01:19:26.655Z,81.10
2018-12-11T01:21:55.106Z,73.40
2018-12-11T01:24:23.109Z,73.30
2018-12-11T01:26:51.206Z,69.00
2018-12-11T01:29:18.709Z,67.40
2018-12-11T01:31:46.219Z,67.20
2018-12-11T01:34:15.557Z,69.00
2018-12-11T01:36:43.083Z,70.20
2018-12-11T01:39:11.669Z,70.50
2018-12-11T01:41:39.710Z,70.40
2018-12-11T01:44:08.051Z,70.90
2018-12-11T01:46:36.763Z,71.60
2018-12-11T01:49:04.901Z,74.90
2018-12-11T01:51:32.385Z,70.30
2018-12-11T01:54:00.753Z,70.70
2018-12-11T01:56:29.238Z,71.00
2018-12-11T01:58:57.621Z,72.30
2018-12-11T02:01:26.445Z,74.10
2018-12-11T02:03:55.429Z,73.10
2018-12-11T02:06:24.303Z,75.30
2018-12-11T02:08:53.050Z,79.30
2018-12-11T02:11:20.542Z,78.10
2018-12-11T02:13:48.214Z,73.80
2018-12-11T02:16:16.961Z,71.00
2018-12-11T02:18:45.210Z,73.40
2018-12-11T02:21:14.128Z,73.10
2018-12-11T02:23:42.356Z,69.50
2018-12-11T02:26:09.922Z,67.80
2018-12-11T02:28:37.807Z,67.50
2018-12-11T02:31:05.934Z,69.60
2018-12-11T02:33:33.556Z,75.00
2018-12-11T02:36:02.446Z,77.00
2018-12-11T02:38:31.359Z,79.50
2018-12-11T02:40:59.440Z,79.60
2018-12-11T02:43:27.575Z,80.50
2018-12-11T02:45:55.773Z,80.40
2018-12-11T02:48:23.271Z,81.10
2018-12-11T02:50:51.416Z,81.30
2018-12-11T02:53:18.918Z,81.40
2018-12-11T02:55:47.603Z,80.70
2018-12-11T02:58:15.111Z,81.20
2018-12-11T03:00:44.030Z,80.10
2018-12-11T03:03:12.411Z,82.00
2018-12-11T03:05:40.893Z,82.00
2018-12-11T03:08:08.368Z,84.70
2018-12-11T03:10:35.877Z,84.70
2018-12-11T03:13:03.613Z,82.80
2018-12-11T03:15:31.168Z,80.20
2018-12-11T03:17:59.227Z,82.00
2018-12-11T03:20:27.416Z,79.50
2018-12-11T03:22:54.882Z,74.60
2018-12-11T03:25:22.345Z,75.40
2018-12-11T03:27:50.782Z,79.40
2018-12-11T03:30:18.256Z,76.50
2018-12-11T03:32:45.796Z,75.50
2018-12-11T03:35:13.831Z,76.40
2018-12-11T03:37:41.315Z,74.90
2018-12-11T03:40:08.908Z,76.30
2018-12-11T03:42:37.538Z,74.60
2018-12-11T03:45:06.189Z,73.20
2018-12-11T03:47:33.677Z,74.10
2018-12-11T03:50:01.535Z,71.40
2018-12-11T03:52:29.019Z,71.40
2018-12-11T03:54:57.421Z,72.50
2018-12-11T03:57:25.694Z,69.30
2018-12-11T03:59:53.347Z,70.30
2018-12-11T04:02:22.267Z,69.90
2018-12-11T04:04:50.273Z,74.60
2018-12-11T04:07:18.697Z,76.20
2018-12-11T04:09:46.199Z,77.40
2018-12-11T04:12:13.736Z,78.00
2018-12-11T04:14:41.302Z,74.50
2018-12-11T04:17:09.584Z,74.70
2018-12-11T04:19:38.480Z,71.60
2018-12-11T04:22:06.002Z,69.80
2018-12-11T04:24:33.523Z,71.70
2018-12-11T04:27:02.069Z,68.80
2018-12-11T04:29:29.581Z,70.60
2018-12-11T04:31:57.167Z,70.40
2018-12-11T04:34:25.494Z,75.80
2018-12-11T04:36:52.952Z,77.50
2018-12-11T04:39:21.241Z,73.80
2018-12-11T04:41:49.329Z,74.80
2018-12-11T04:44:16.822Z,77.80
2018-12-11T04:46:44.833Z,77.80
2018-12-11T04:49:12.329Z,78.80
2018-12-11T04:51:39.821Z,79.40
2018-12-11T04:54:07.501Z,79.70
2018-12-11T04:56:35.741Z,80.90
2018-12-11T04:59:03.468Z,81.00
2018-12-11T05:01:32.186Z,81.40
2018-12-11T05:04:00.273Z,81.90
2018-12-11T05:06:28.362Z,80.20
2018-12-11T05:08:55.933Z,80.50
2018-12-11T05:11:23.421Z,81.60
2018-12-11T05:13:51.576Z,82.70
2018-12-11T05:16:19.175Z,83.90
2018-12-11T05:18:46.664Z,84.40
2018-12-11T05:21:15.029Z,80.70
2018-12-11T05:23:42.533Z,83.90
2018-12-11T05:26:10.034Z,84.60
2018-12-11T05:28:38.132Z,83.50
2018-12-11T05:31:05.747Z,84.50
2018-12-11T05:33:33.318Z,85.40
2018-12-11T05:36:00.819Z,85.20
2018-12-11T05:38:29.753Z,86.20
2018-12-11T05:40:57.957Z,81.90
2018-12-11T05:43:26.215Z,83.40
2018-12-11T05:45:55.001Z,82.20
2018-12-11T05:48:22.880Z,80.60
2018-12-11T05:50:50.493Z,81.10
2018-12-11T05:53:18.905Z,82.10
2018-12-11T05:55:47.108Z,83.30
2018-12-11T06:05:02.042Z,83.00
2018-12-11T06:07:30.713Z,84.80
2018-12-11T06:09:58.903Z,86.70
2018-12-11T06:12:27.798Z,87.90
2018-12-11T06:14:55.285Z,88.50
2018-12-11T06:17:22.750Z,90.80
2018-12-11T06:19:50.794Z,86.30
2018-12-11T06:22:18.259Z,89.40
2018-12-11T06:24:45.737Z,90.30
2018-12-11T06:27:14.010Z,88.60
2018-12-11T06:29:41.514Z,90.90
2018-12-11T06:32:09.022Z,91.80
2018-12-11T06:34:36.634Z,90.90
2018-12-11T06:37:04.693Z,99.90
2018-12-11T06:39:32.197Z,99.90
2018-12-11T06:42:00.265Z,99.90
2018-12-11T06:44:28.732Z,99.00
2018-12-11T06:46:56.821Z,99.60
2018-12-11T06:49:24.868Z,99.90
2018-12-11T06:51:52.953Z,99.80
2018-12-11T06:54:20.424Z,99.90
2018-12-11T06:56:48.582Z,99.90
2018-12-11T06:59:16.811Z,99.90
2018-12-11T07:01:45.476Z,99.90
2018-12-11T07:04:13.534Z,99.90
2018-12-11T07:06:41.593Z,99.90
2018-12-11T07:09:09.592Z,99.90
2018-12-11T07:11:37.795Z,99.90
2018-12-11T07:14:05.287Z,99.90
2018-12-11T07:16:32.878Z,99.90
2018-12-11T07:19:00.470Z,99.90
2018-12-11T07:21:28.542Z,99.90
2018-12-11T07:23:56.832Z,99.90
2018-12-11T07:26:24.459Z,99.90
2018-12-11T07:28:52.426Z,99.90
2018-12-11T07:31:20.085Z,99.90
2018-12-11T07:33:51.018Z,99.90
2018-12-11T07:36:18.502Z,99.90
2018-12-11T07:38:47.191Z,99.60
2018-12-11T07:41:15.386Z,96.90
2018-12-11T07:43:43.533Z,98.10
2018-12-11T07:46:11.037Z,96.00
2018-12-11T07:48:39.207Z,96.60
2018-12-11T07:51:06.701Z,97.40
2018-12-11T07:53:34.805Z,95.60
2018-12-11T07:56:04.146Z,98.10
2018-12-11T07:58:31.634Z,95.50
2018-12-11T08:00:59.138Z,79.60
2018-12-11T08:03:27.255Z,77.30
2018-12-11T08:05:55.156Z,82.00
2018-12-11T08:08:22.716Z,69.90
2018-12-11T08:10:50.898Z,71.50
2018-12-11T08:13:18.448Z,71.10
2018-12-11T08:15:47.236Z,77.00
2018-12-11T08:18:14.845Z,71.40
2018-12-11T08:20:42.845Z,71.10
2018-12-11T08:23:10.334Z,59.90
2018-12-11T08:25:37.861Z,68.80
2018-12-11T08:28:06.777Z,72.90
2018-12-11T08:30:34.268Z,63.70
2018-12-11T08:33:02.438Z,66.30
2018-12-11T08:35:30.042Z,67.30
2018-12-11T08:37:57.965Z,66.30
2018-12-11T08:40:25.477Z,65.00
2018-12-11T08:42:53.406Z,69.00
2018-12-11T08:45:21.478Z,63.30
2018-12-11T08:47:49.567Z,66.40
2018-12-11T08:50:17.952Z,65.60
2018-12-11T08:52:45.437Z,69.00
2018-12-11T08:55:13.483Z,67.80
2018-12-11T08:57:41.660Z,68.90
2018-12-11T09:00:09.455Z,74.00
2018-12-11T09:02:38.388Z,75.90
2018-12-11T09:05:07.186Z,76.90
2018-12-11T09:07:35.511Z,78.90
2018-12-11T09:10:04.203Z,80.20
2018-12-11T09:12:31.942Z,81.50
2018-12-11T09:14:59.618Z,83.10
2018-12-11T09:17:27.116Z,99.90
2018-12-11T09:19:55.283Z,84.20
2018-12-11T09:22:23.658Z,84.90
2018-12-11T09:24:51.150Z,84.50
2018-12-11T09:27:19.683Z,84.40
2018-12-11T09:29:48.395Z,84.80
2018-12-11T09:32:15.899Z,84.50
2018-12-11T09:34:44.103Z,81.50
2018-12-11T09:37:11.578Z,80.30
2018-12-11T09:39:39.086Z,76.80
2018-12-11T09:42:07.609Z,75.30
2018-12-11T09:44:35.509Z,70.90
2018-12-11T09:47:04.644Z,71.00
2018-12-11T09:49:32.163Z,70.00
2018-12-11T09:51:59.661Z,68.30
2018-12-11T09:54:27.170Z,70.80
2018-12-11T09:56:55.443Z,68.20
2018-12-11T09:59:23.528Z,64.60
2018-12-11T10:01:52.262Z,64.50
2018-12-11T10:04:20.210Z,64.80
2018-12-11T10:06:48.398Z,69.30
2018-12-11T10:09:15.914Z,69.50
2018-12-11T10:11:43.425Z,70.80
2018-12-11T10:14:11.083Z,72.10
2018-12-11T10:16:38.578Z,73.00
2018-12-11T10:19:06.172Z,72.90
2018-12-11T10:21:34.195Z,73.80
2018-12-11T10:24:01.796Z,74.00
2018-12-11T10:26:29.818Z,75.20
2018-12-11T10:28:58.230Z,73.90
2018-12-11T10:31:26.406Z,71.60
2018-12-11T10:33:54.003Z,72.40
2018-12-11T10:36:21.526Z,70.60
2018-12-11T10:38:49.049Z,69.30
2018-12-11T10:41:17.396Z,71.00
2018-12-11T10:43:45.366Z,70.70
2018-12-11T10:46:13.378Z,70.80
2018-12-11T10:48:40.844Z,66.70
2018-12-11T10:51:08.362Z,64.30
2018-12-11T10:53:36.037Z,63.60
2018-12-11T10:56:04.776Z,63.60
2018-12-11T10:58:32.774Z,63.90
2018-12-11T11:01:05.925Z,64.20
2018-12-11T11:03:33.995Z,66.90
2018-12-11T11:06:01.590Z,65.50
2018-12-11T11:08:29.070Z,62.40
2018-12-11T11:10:56.635Z,62.30
2018-12-11T11:13:24.247Z,59.60
2018-12-11T11:15:51.825Z,59.70
2018-12-11T11:18:19.474Z,60.70
2018-12-11T11:20:47.621Z,60.90
2018-12-11T11:23:15.144Z,59.70
2018-12-11T11:25:43.367Z,62.30
2018-12-11T11:28:11.347Z,61.10
2018-12-11T11:30:39.467Z,59.10
2018-12-11T11:33:07.134Z,59.00
2018-12-11T11:35:35.910Z,60.40
2018-12-11T11:38:04.386Z,61.20
2018-12-11T11:40:32.539Z,61.90
2018-12-11T11:43:01.460Z,59.20
2018-12-11T11:45:29.704Z,58.30
2018-12-11T11:47:57.815Z,59.00
2018-12-11T11:50:25.688Z,57.10
2018-12-11T11:52:53.400Z,59.00
2018-12-11T11:55:21.822Z,59.50
2018-12-11T11:57:50.408Z,60.80
2018-12-11T12:00:18.661Z,62.50
2018-12-11T12:02:47.075Z,65.40
2018-12-11T12:05:14.953Z,67.40
2018-12-11T12:07:42.999Z,70.60
2018-12-11T12:10:10.967Z,70.90
2018-12-11T12:12:38.697Z,71.60
2018-12-11T12:15:07.812Z,72.60
2018-12-11T12:17:35.567Z,71.20
2018-12-11T12:20:05.326Z,71.90
2018-12-11T12:22:33.422Z,72.70
2018-12-11T12:25:00.949Z,72.20
2018-12-11T12:27:29.438Z,72.20
2018-12-11T12:29:57.414Z,72.20
2018-12-11T12:32:25.376Z,72.20
2018-12-11T12:34:52.953Z,69.60
2018-12-11T12:37:20.873Z,66.40
2018-12-11T12:39:49.486Z,66.20
2018-12-11T12:42:17.649Z,66.60
2018-12-11T12:44:46.013Z,66.80
2018-12-11T12:47:13.497Z,64.40
2018-12-11T12:49:41.477Z,65.50
2018-12-11T12:52:08.970Z,65.10
2018-12-11T12:54:37.184Z,64.90
2018-12-11T12:57:06.197Z,64.40
2018-12-11T12:59:34.262Z,65.30
2018-12-11T13:02:02.553Z,66.60
2018-12-11T13:04:31.256Z,66.60
2018-12-11T13:06:59.397Z,68.10
2018-12-11T13:09:26.957Z,67.10
2018-12-11T13:11:54.485Z,67.30
2018-12-11T13:14:22.024Z,66.40
2018-12-11T13:16:50.213Z,60.10
2018-12-11T13:19:19.095Z,61.70
2018-12-11T13:21:47.353Z,60.90
2018-12-11T13:24:15.533Z,60.10
2018-12-11T13:26:44.150Z,62.60
2018-12-11T13:29:12.164Z,64.10
2018-12-11T13:31:40.746Z,64.90
2018-12-11T13:34:08.883Z,65.60
2018-12-11T13:36:36.640Z,66.00
2018-12-11T13:39:06.022Z,68.00
2018-12-11T13:41:33.622Z,67.50
2018-12-11T13:44:01.558Z,67.60
2018-12-11T13:46:30.064Z,68.20
2018-12-11T13:48:57.696Z,69.10
2018-12-11T13:51:25.179Z,69.10
2018-12-11T13:53:53.678Z,69.50
2018-12-11T13:56:21.654Z,70.00
2018-12-11T13:58:49.846Z,69.80
2018-12-11T14:01:19.268Z,69.20
2018-12-11T14:03:47.416Z,69.60
2018-12-11T14:06:15.017Z,70.80
2018-12-11T14:08:42.496Z,72.10
2018-12-11T14:11:10.186Z,69.20
2018-12-11T14:13:38.331Z,70.00
2018-12-11T14:16:06.178Z,70.10
2018-12-11T14:18:37.527Z,79.10
2018-12-11T14:21:05.646Z,83.00
2018-12-11T14:23:34.988Z,90.10
2018-12-11T14:26:02.626Z,99.50
2018-12-11T14:28:30.659Z,99.90
2018-12-11T14:30:59.194Z,99.90
2018-12-11T14:33:26.762Z,99.90
2018-12-11T14:35:54.270Z,99.90
2018-12-11T14:38:22.018Z,96.10
2018-12-11T14:40:49.551Z,90.90
2018-12-11T14:43:17.374Z,90.20
2018-12-11T14:45:46.566Z,94.40
2018-12-11T14:48:14.147Z,92.50
2018-12-11T14:50:41.648Z,92.50
2018-12-11T14:53:09.282Z,96.00
2018-12-11T14:55:38.363Z,94.40
2018-12-11T14:58:06.935Z,93.10
2018-12-11T15:00:35.191Z,93.50
2018-12-11T15:03:03.390Z,91.90
2018-12-11T15:05:31.678Z,94.40
2018-12-11T15:07:59.406Z,96.40
2018-12-11T15:10:27.070Z,93.70
2018-12-11T15:12:55.917Z,96.60
2018-12-11T15:15:25.715Z,95.50
2018-12-11T15:17:53.334Z,96.40
2018-12-11T15:20:21.427Z,96.20
2018-12-11T15:22:49.456Z,96.20
2018-12-11T15:25:16.981Z,96.40
2018-12-11T15:27:45.157Z,95.50
2018-12-11T15:30:13.779Z,95.80
2018-12-11T15:32:41.971Z,95.30
2018-12-11T15:35:10.498Z,96.20
2018-12-11T15:37:38.362Z,96.50
2018-12-11T15:40:06.918Z,96.50
2018-12-11T15:42:34.546Z,97.70
2018-12-11T15:45:02.131Z,97.70
2018-12-11T15:47:30.947Z,99.40
2018-12-11T15:49:58.454Z,97.60
2018-12-11T15:52:26.333Z,99.60
2018-12-11T15:54:54.338Z,99.90
2018-12-11T15:57:22.606Z,99.10
2018-12-11T15:59:51.171Z,98.90
2018-12-11T16:02:23.072Z,99.60
2018-12-11T16:04:52.206Z,99.90
2018-12-11T16:07:19.730Z,99.90
2018-12-11T16:09:48.018Z,99.90
2018-12-11T16:12:16.150Z,99.90
2018-12-11T16:14:43.605Z,99.90
2018-12-11T16:17:11.631Z,99.90
2018-12-11T16:19:40.008Z,99.90
2018-12-11T16:22:08.247Z,99.90
2018-12-11T16:24:35.758Z,99.90
2018-12-11T16:27:04.475Z,99.90
2018-12-11T16:29:31.974Z,99.90
2018-12-11T16:31:59.478Z,99.90
2018-12-11T16:34:27.018Z,99.90
2018-12-11T16:36:55.101Z,99.90
2018-12-11T16:39:23.870Z,99.90
2018-12-11T16:41:51.368Z,99.90
2018-12-11T16:44:18.938Z,99.90
2018-12-11T16:46:46.465Z,99.90
2018-12-11T16:49:14.019Z,99.90
2018-12-11T16:51:41.549Z,99.90
2018-12-11T16:54:10.307Z,99.90
2018-12-11T16:56:38.927Z,99.90
2018-12-11T16:59:07.270Z,99.90
2018-12-11T17:01:35.925Z,99.90
2018-12-11T17:04:04.245Z,99.90
2018-12-11T17:06:31.740Z,99.90
2018-12-11T17:08:59.320Z,99.90
2018-12-11T17:11:27.422Z,99.90
2018-12-11T17:13:55.145Z,99.90
2018-12-11T17:16:23.522Z,99.90
2018-12-11T17:18:51.550Z,99.90
2018-12-11T17:21:20.233Z,99.90
2018-12-11T17:23:48.986Z,99.90
2018-12-11T17:26:16.471Z,99.90
2018-12-11T17:28:44.526Z,99.90
2018-12-11T17:31:12.114Z,99.90
2018-12-11T17:33:42.122Z,99.90
2018-12-11T17:36:10.170Z,99.90
2018-12-11T17:38:38.055Z,99.90
2018-12-11T17:41:07.635Z,99.90
2018-12-11T17:43:37.260Z,99.90
2018-12-11T17:46:07.436Z,99.90
2018-12-11T17:48:41.594Z,99.90
2018-12-11T17:51:06.518Z,99.90
2018-12-11T17:53:35.128Z,99.90
2018-12-11T17:56:03.802Z,99.90
2018-12-11T17:58:32.082Z,99.90
2018-12-11T18:00:59.930Z,99.90
2018-12-11T18:03:29.741Z,99.90
2018-12-11T18:05:57.592Z,99.90
2018-12-11T18:08:27.247Z,99.90
2018-12-11T18:10:55.920Z,99.90
2018-12-11T18:13:24.152Z,99.90
2018-12-11T18:15:53.854Z,99.90
2018-12-11T18:18:21.636Z,99.90
2018-12-11T18:20:51.010Z,99.90
2018-12-11T18:23:19.730Z,99.90
2018-12-11T18:25:47.781Z,99.90
2018-12-11T18:28:16.675Z,99.90
2018-12-11T18:30:45.618Z,99.90
2018-12-11T18:33:14.991Z,99.90
2018-12-11T18:35:42.736Z,99.90
2018-12-11T18:38:12.992Z,99.90
2018-12-11T18:40:40.717Z,99.90
2018-12-11T18:43:08.786Z,99.90
2018-12-11T18:45:36.903Z,99.90
2018-12-11T18:48:05.914Z,99.90
2018-12-11T18:50:35.839Z,99.90
2018-12-11T18:53:04.371Z,99.90
2018-12-11T18:55:33.152Z,99.90
2018-12-11T18:58:01.458Z,99.90
2018-12-11T19:00:28.958Z,99.90
2018-12-11T19:02:58.008Z,99.90
2018-12-11T19:05:26.482Z,99.90
2018-12-11T19:07:54.378Z,99.90
2018-12-11T19:10:25.105Z,99.90
2018-12-11T19:12:53.116Z,99.90
2018-12-11T19:22:10.330Z,99.90
2018-12-11T19:24:45.081Z,99.90
2018-12-11T19:27:13.976Z,99.90
2018-12-11T19:29:44.279Z,99.90
2018-12-11T19:32:12.575Z,99.60
2018-12-11T19:34:40.690Z,99.90
2018-12-11T19:37:08.990Z,99.90
2018-12-11T19:39:37.614Z,99.90
2018-12-11T19:42:06.782Z,96.40
2018-12-11T19:44:35.305Z,96.20
2018-12-11T19:47:02.978Z,93.30
2018-12-11T19:49:30.849Z,96.50
2018-12-11T19:51:58.471Z,95.00
2018-12-11T19:54:25.982Z,98.00
2018-12-11T19:56:54.620Z,98.70
2018-12-11T19:59:22.982Z,99.90
2018-12-11T20:01:50.503Z,99.90
2018-12-11T20:04:18.934Z,99.40
2018-12-11T20:06:46.553Z,98.60
2018-12-11T20:09:15.519Z,95.70
2018-12-11T20:11:43.366Z,96.80
2018-12-11T20:14:10.909Z,95.70
2018-12-11T20:16:39.595Z,99.90
2018-12-11T20:19:07.814Z,98.10
2018-12-11T20:21:35.766Z,99.90
2018-12-11T20:24:05.108Z,99.90
2018-12-11T20:26:39.333Z,99.90
2018-12-11T20:29:04.941Z,99.90
2018-12-11T20:31:33.085Z,99.90
2018-12-11T20:34:00.599Z,99.90
2018-12-11T20:36:29.907Z,99.90
2018-12-11T20:38:57.494Z,99.90
2018-12-11T20:41:26.006Z,99.90
2018-12-11T20:43:53.518Z,99.90
2018-12-11T20:46:23.389Z,99.90
2018-12-11T20:48:51.082Z,99.90
2018-12-11T20:51:18.652Z,99.90
2018-12-11T20:53:46.431Z,99.90
2018-12-11T20:56:14.713Z,99.90
2018-12-11T20:58:42.219Z,99.90
2018-12-11T21:01:10.154Z,99.90
2018-12-11T21:03:38.499Z,99.90
2018-12-11T21:06:07.162Z,99.90
2018-12-11T21:08:35.899Z,99.90
2018-12-11T21:11:03.525Z,99.90
2018-12-11T21:13:32.355Z,99.90
2018-12-11T21:16:00.818Z,99.90
2018-12-11T21:18:30.786Z,99.90
2018-12-11T21:20:59.351Z,99.90
2018-12-11T21:23:28.994Z,99.90
2018-12-11T21:25:57.171Z,99.90
2018-12-11T21:28:26.849Z,99.90
2018-12-11T21:30:54.436Z,99.90
2018-12-11T21:33:22.616Z,99.90
2018-12-11T21:35:50.347Z,99.90
2018-12-11T21:38:19.360Z,99.90
2018-12-11T21:40:47.234Z,99.90
2018-12-11T21:43:17.703Z,99.90
2018-12-11T21:45:47.833Z,99.90
2018-12-11T21:48:15.899Z,99.90
2018-12-11T21:50:43.803Z,99.90
2018-12-11T21:53:12.486Z,99.90
2018-12-11T21:55:40.486Z,99.90
2018-12-11T21:58:08.604Z,99.90
2018-12-11T22:00:37.136Z,99.90
2018-12-11T22:03:06.959Z,99.90
2018-12-11T22:05:36.108Z,99.90
2018-12-11T22:08:03.785Z,99.90
2018-12-11T22:10:32.212Z,99.90
2018-12-11T22:13:00.807Z,99.90
2018-12-11T22:15:28.334Z,99.90
2018-12-11T22:17:55.857Z,99.90
2018-12-11T22:20:24.456Z,99.90
2018-12-11T22:22:52.650Z,99.90
2018-12-11T22:25:20.312Z,99.90
2018-12-11T22:27:48.240Z,99.90
2018-12-11T22:30:17.140Z,99.90
2018-12-11T22:32:44.666Z,99.90
2018-12-11T22:35:12.226Z,99.90
2018-12-11T22:37:40.638Z,99.90
2018-12-11T22:40:08.813Z,99.90
2018-12-11T22:42:38.961Z,99.90
2018-12-11T22:45:06.710Z,99.90
2018-12-11T22:47:34.238Z,99.90
2018-12-11T22:50:02.107Z,99.90
2018-12-11T22:52:29.699Z,99.90
2018-12-11T22:54:57.910Z,99.90
2018-12-11T22:57:27.546Z,99.90
2018-12-11T22:59:55.212Z,99.90
2018-12-11T23:02:24.947Z,99.90
2018-12-11T23:04:53.168Z,99.90
2018-12-11T23:07:21.302Z,99.90
2018-12-11T23:09:49.566Z,99.90
2018-12-11T23:12:17.270Z,99.90
2018-12-11T23:14:45.791Z,99.90
2018-12-11T23:17:13.678Z,99.90
2018-12-11T23:19:41.936Z,99.90
2018-12-11T23:22:09.413Z,99.90
2018-12-11T23:24:37.096Z,99.90
2018-12-11T23:27:05.445Z,99.90
2018-12-11T23:29:32.957Z,99.90
2018-12-11T23:32:00.430Z,99.90
2018-12-11T23:34:28.092Z,99.90
2018-12-11T23:36:55.579Z,99.90
2018-12-11T23:39:23.145Z,99.90
2018-12-11T23:41:50.938Z,99.90
2018-12-11T23:44:18.394Z,99.90
2018-12-11T23:46:45.936Z,99.90
2018-12-11T23:49:13.506Z,99.90
2018-12-11T23:51:41.227Z,99.90
2018-12-11T23:54:09.563Z,99.90
2018-12-11T23:56:37.554Z,99.90
2018-12-11T23:59:05.147Z,99.90
